createdAt,value
2019-04-26T00:02:32.742Z,99997.12
2019-04-26T00:05:02.412Z,99986.75
2019-04-26T00:07:31.940Z,99970.85
2019-04-26T00:10:03.165Z,99975.09
2019-04-26T00:12:35.351Z,99985.08
2019-04-26T00:15:08.070Z,99983.98
2019-04-26T00:17:48.458Z,99992.37
2019-04-26T00:20:19.025Z,100006.50
2019-04-26T00:22:48.718Z,100017.20
2019-04-26T00:25:18.658Z,100030.16
2019-04-26T00:27:48.285Z,100041.29
2019-04-26T00:30:19.080Z,100043.18
2019-04-26T00:32:48.641Z,100045.63
2019-04-26T00:35:18.176Z,100044.37
2019-04-26T00:37:47.663Z,100044.31
2019-04-26T00:40:18.171Z,100038.91
2019-04-26T00:42:47.855Z,100042.05
2019-04-26T00:45:17.420Z,100031.34
2019-04-26T00:47:47.769Z,100028.95
2019-04-26T00:50:17.763Z,100033.09
2019-04-26T00:52:47.797Z,100038.19
2019-04-26T00:55:17.784Z,100043.84
2019-04-26T00:57:47.878Z,100056.88
2019-04-26T01:00:19.573Z,100061.16
2019-04-26T01:02:50.729Z,100062.31
2019-04-26T01:05:20.903Z,100066.46
2019-04-26T01:07:52.301Z,100057.95
2019-04-26T01:10:21.791Z,100056.34
2019-04-26T01:12:51.258Z,100060.48
2019-04-26T01:15:22.045Z,100061.44
2019-04-26T01:17:51.933Z,100076.41
2019-04-26T01:20:24.736Z,100081.50
2019-04-26T01:22:58.607Z,100088.19
2019-04-26T01:25:52.471Z,100093.50
2019-04-26T01:28:38.349Z,100094.87
2019-04-26T01:31:09.164Z,100094.50
2019-04-26T01:33:39.601Z,100085.05
2019-04-26T01:36:13.288Z,100084.70
2019-04-26T01:38:40.815Z,100083.89
2019-04-26T01:41:17.477Z,100104.28
2019-04-26T01:43:55.047Z,100094.38
2019-04-26T01:46:29.027Z,100103.72
2019-04-26T01:49:04.751Z,100104.72
2019-04-26T01:51:53.719Z,100103.34
2019-04-26T01:54:28.194Z,100102.77
2019-04-26T01:57:02.202Z,100110.47
2019-04-26T01:59:31.974Z,100119.92
2019-04-26T02:02:04.331Z,100119.92
2019-04-26T02:04:35.766Z,100119.14
2019-04-26T02:07:05.562Z,100121.91
2019-04-26T02:09:35.203Z,100118.77
2019-04-26T02:12:05.030Z,100101.02
2019-04-26T02:14:34.652Z,100102.84
2019-04-26T02:17:04.538Z,100090.41
2019-04-26T02:19:34.664Z,100080.95
2019-04-26T02:22:21.441Z,100085.31
2019-04-26T02:24:52.646Z,100100.73
2019-04-26T02:27:26.815Z,100102.34
2019-04-26T02:29:57.375Z,100100.17
2019-04-26T02:32:28.981Z,100109.48
2019-04-26T02:34:58.991Z,100115.83
2019-04-26T02:37:30.849Z,100121.80
2019-04-26T02:40:00.450Z,100116.83
2019-04-26T02:42:39.700Z,100114.52
2019-04-26T02:45:26.928Z,100107.97
2019-04-26T02:48:16.985Z,100118.87
2019-04-26T02:50:58.747Z,100129.81
2019-04-26T02:53:37.375Z,100137.52
2019-04-26T02:56:25.408Z,100135.79
2019-04-26T02:59:02.637Z,100132.42
2019-04-26T03:01:34.492Z,100135.85
2019-04-26T03:04:03.671Z,100131.92
2019-04-26T03:06:34.916Z,100126.84
2019-04-26T03:09:07.576Z,100131.45
2019-04-26T03:11:43.174Z,100136.84
2019-04-26T03:14:15.608Z,100144.79
2019-04-26T03:17:03.041Z,100140.14
2019-04-26T03:19:44.245Z,100130.90
2019-04-26T03:22:27.346Z,100125.81
2019-04-26T03:25:23.765Z,100119.33
2019-04-26T03:28:44.230Z,100109.88
2019-04-26T03:31:23.997Z,100100.97
2019-04-26T03:34:14.543Z,100117.57
2019-04-26T03:37:32.561Z,100141.69
2019-04-26T03:40:40.430Z,100149.77
2019-04-26T03:43:34.577Z,100153.25
2019-04-26T03:46:20.653Z,100159.72
2019-04-26T03:49:19.106Z,100160.66
2019-04-26T03:52:20.341Z,100155.85
2019-04-26T03:54:57.268Z,100159.12
2019-04-26T03:58:08.206Z,100156.47
2019-04-26T04:00:54.300Z,100155.59
2019-04-26T04:03:49.492Z,100159.86
2019-04-26T04:06:24.365Z,100163.34
2019-04-26T04:09:01.255Z,100167.05
2019-04-26T04:11:42.373Z,100161.67
2019-04-26T04:14:34.387Z,100166.16
2019-04-26T04:17:21.832Z,100175.61
2019-04-26T04:20:21.297Z,100172.85
2019-04-26T04:23:13.317Z,100176.99
2019-04-26T04:25:52.182Z,100166.16
2019-04-26T04:29:02.933Z,100162.01
2019-04-26T04:31:47.616Z,100171.47
2019-04-26T04:34:46.008Z,100172.63
2019-04-26T04:37:18.222Z,100177.48
2019-04-26T04:40:01.442Z,100193.06
2019-04-26T04:42:45.901Z,100193.78
2019-04-26T04:45:42.191Z,100188.38
2019-04-26T04:48:29.758Z,100188.15
2019-04-26T04:51:33.544Z,100187.92
2019-04-26T04:54:25.533Z,100187.11
2019-04-26T04:57:02.387Z,100188.05
2019-04-26T05:00:00.305Z,100194.73
2019-04-26T05:02:58.859Z,100197.27
2019-04-26T05:08:48.854Z,100174.38
2019-04-26T05:11:55.978Z,100189.35
2019-04-26T05:14:47.991Z,100203.17
2019-04-26T05:17:56.828Z,100209.71
2019-04-26T05:20:48.729Z,100214.08
2019-04-26T05:23:57.706Z,100216.84
2019-04-26T05:26:57.188Z,100221.22
2019-04-26T05:30:02.716Z,100220.43
2019-04-26T05:32:55.085Z,100222.59
2019-04-26T05:36:32.192Z,100228.72
2019-04-26T05:39:08.370Z,100230.55
2019-04-26T05:42:21.576Z,100225.81
2019-04-26T05:45:08.967Z,100229.73
2019-04-26T05:48:04.184Z,100246.98
2019-04-26T05:51:04.598Z,100239.52
2019-04-26T05:54:04.334Z,100230.66
2019-04-26T05:57:10.331Z,100234.09
2019-04-26T06:00:50.379Z,100231.41
2019-04-26T06:04:08.387Z,100222.62
2019-04-26T06:07:32.598Z,100233.52
2019-04-26T06:10:15.757Z,100232.88
2019-04-26T06:13:10.676Z,100236.56
2019-04-26T06:16:38.685Z,100238.02
2019-04-26T06:19:41.824Z,100233.52
2019-04-26T06:22:56.241Z,100244.31
2019-04-26T06:25:33.851Z,100243.82
2019-04-26T06:28:22.281Z,100248.14
2019-04-26T06:30:57.273Z,100247.05
2019-04-26T06:33:49.286Z,100248.53
2019-04-26T06:36:23.736Z,100272.94
2019-04-26T06:39:18.596Z,100303.11
2019-04-26T06:42:24.009Z,100316.23
2019-04-26T06:45:24.231Z,100306.64
2019-04-26T06:48:23.663Z,100312.69
2019-04-26T06:51:23.547Z,100304.83
2019-04-26T06:54:11.001Z,100299.77
2019-04-26T06:57:09.623Z,100305.78
2019-04-26T06:59:59.445Z,100307.38
2019-04-26T07:03:09.619Z,100295.38
2019-04-26T07:05:49.261Z,100297.42
2019-04-26T07:08:40.880Z,100299.02
2019-04-26T07:11:31.425Z,100291.50
2019-04-26T07:14:30.631Z,100284.80
2019-04-26T07:17:16.924Z,100296.47
2019-04-26T07:20:13.004Z,100307.77
2019-04-26T07:23:21.714Z,100316.86
2019-04-26T07:26:39.231Z,100317.91
2019-04-26T07:29:40.051Z,100319.51
2019-04-26T07:32:42.541Z,100332.41
2019-04-26T07:35:21.000Z,100334.14
2019-04-26T07:38:28.220Z,100347.77
2019-04-26T07:41:40.818Z,100348.14
2019-04-26T07:44:33.992Z,100352.07
2019-04-26T07:47:14.342Z,100352.07
2019-04-26T07:50:33.068Z,100360.16
2019-04-26T07:53:29.448Z,100355.41
2019-04-26T07:56:15.133Z,100359.44
2019-04-26T07:59:31.271Z,100363.09
2019-04-26T08:02:34.762Z,100358.66
2019-04-26T08:05:55.574Z,100363.20
2019-04-26T08:08:29.563Z,100350.47
2019-04-26T08:11:22.274Z,100343.92
2019-04-26T08:14:08.541Z,100350.56
2019-04-26T08:17:04.788Z,100365.52
2019-04-26T08:19:57.491Z,100377.14
2019-04-26T08:22:28.670Z,100377.30
2019-04-26T08:25:00.087Z,100374.84
2019-04-26T08:27:32.966Z,100382.20
2019-04-26T08:30:10.259Z,100378.05
2019-04-26T08:32:42.814Z,100374.55
2019-04-26T08:35:20.619Z,100383.09
2019-04-26T08:37:53.143Z,100399.12
2019-04-26T08:40:30.671Z,100397.39
2019-04-26T08:43:12.401Z,100400.16
2019-04-26T08:46:01.742Z,100402.55
2019-04-26T08:48:23.338Z,100397.83
2019-04-26T08:50:55.280Z,100395.63
2019-04-26T08:53:27.899Z,100401.38
2019-04-26T08:55:59.866Z,100407.15
2019-04-26T08:58:31.767Z,100401.83
2019-04-26T09:01:22.659Z,100401.26
2019-04-26T09:04:08.883Z,100401.48
2019-04-26T09:06:42.804Z,100406.08
2019-04-26T09:09:18.235Z,100410.67
2019-04-26T09:11:59.092Z,100411.33
2019-04-26T09:14:23.988Z,100416.81
2019-04-26T09:16:54.041Z,100409.25
2019-04-26T09:19:26.140Z,100409.96
2019-04-26T09:22:12.397Z,100409.00
2019-04-26T09:24:34.915Z,100404.83
2019-04-26T09:27:08.771Z,100397.52
2019-04-26T09:29:39.968Z,100403.07
2019-04-26T09:32:13.573Z,100406.84
2019-04-26T09:34:46.738Z,100409.23
2019-04-26T09:37:16.465Z,100414.43
2019-04-26T09:39:46.182Z,100416.16
2019-04-26T09:42:23.307Z,100420.45
2019-04-26T09:44:56.816Z,100429.65
2019-04-26T09:47:39.479Z,100433.29
2019-04-26T09:50:17.066Z,100426.56
2019-04-26T09:52:48.469Z,100427.37
2019-04-26T09:55:18.133Z,100427.59
2019-04-26T09:57:47.631Z,100440.09
2019-04-26T10:00:23.657Z,100446.44
2019-04-26T10:02:53.201Z,100444.48
2019-04-26T10:05:23.884Z,100436.72
2019-04-26T10:07:53.474Z,100443.66
2019-04-26T10:10:24.793Z,100439.28
2019-04-26T10:12:59.741Z,100440.88
2019-04-26T10:15:46.808Z,100448.78
2019-04-26T10:18:20.423Z,100449.73
2019-04-26T10:20:49.344Z,100454.13
2019-04-26T10:23:18.880Z,100453.91
2019-04-26T10:25:52.071Z,100459.24
2019-04-26T10:28:19.977Z,100458.07
2019-04-26T10:30:49.797Z,100462.45
2019-04-26T10:33:19.349Z,100457.11
2019-04-26T10:35:52.486Z,100457.33
2019-04-26T10:38:23.919Z,100453.25
2019-04-26T10:40:51.434Z,100458.48
2019-04-26T10:43:20.902Z,100451.48
2019-04-26T10:45:53.962Z,100446.62
2019-04-26T10:48:23.304Z,100449.33
2019-04-26T10:50:52.958Z,100451.05
2019-04-26T10:53:25.638Z,100436.67
2019-04-26T10:56:05.719Z,100438.56
2019-04-26T10:58:39.730Z,100428.94
2019-04-26T11:01:16.234Z,100429.69
2019-04-26T11:03:45.787Z,100429.11
2019-04-26T11:06:15.500Z,100437.71
2019-04-26T11:08:45.236Z,100441.56
2019-04-26T11:11:14.799Z,100446.40
2019-04-26T11:13:44.369Z,100443.84
2019-04-26T11:16:13.909Z,100428.11
2019-04-26T11:18:43.502Z,100427.02
2019-04-26T11:21:16.365Z,100424.15
2019-04-26T11:23:45.522Z,100408.31
2019-04-26T11:26:16.678Z,100411.38
2019-04-26T11:28:46.230Z,100415.86
2019-04-26T11:31:15.882Z,100414.48
2019-04-26T11:33:49.589Z,100410.92
2019-04-26T11:36:17.019Z,100418.35
2019-04-26T11:38:46.495Z,100426.36
2019-04-26T11:41:16.067Z,100432.55
2019-04-26T11:43:45.519Z,100427.60
2019-04-26T11:46:14.997Z,100426.63
2019-04-26T11:48:44.501Z,100430.23
2019-04-26T11:51:14.061Z,100431.47
2019-04-26T11:53:44.760Z,100428.48
2019-04-26T11:56:14.520Z,100432.31
2019-04-26T11:58:44.080Z,100429.97
2019-04-26T12:01:15.408Z,100428.78
2019-04-26T12:03:46.522Z,100422.06
2019-04-26T12:06:17.730Z,100415.51
2019-04-26T12:08:51.811Z,100413.37
2019-04-26T12:11:31.489Z,100418.80
2019-04-26T12:13:55.414Z,100410.87
2019-04-26T12:16:23.898Z,100412.88
2019-04-26T12:18:53.372Z,100409.95
2019-04-26T12:21:22.878Z,100404.41
2019-04-26T12:23:55.471Z,100400.29
2019-04-26T12:26:23.558Z,100405.49
2019-04-26T12:28:53.077Z,100399.16
2019-04-26T12:31:22.576Z,100404.56
2019-04-26T12:33:52.120Z,100394.17
2019-04-26T12:36:21.620Z,100401.77
2019-04-26T12:38:51.155Z,100396.19
2019-04-26T12:41:25.382Z,100400.58
2019-04-26T12:43:54.573Z,100404.79
2019-04-26T12:46:29.665Z,100405.40
2019-04-26T12:48:59.150Z,100406.00
2019-04-26T12:51:28.777Z,100412.98
2019-04-26T12:53:58.282Z,100419.97
2019-04-26T12:56:31.282Z,100415.41
2019-04-26T12:58:59.036Z,100416.80
2019-04-26T13:01:28.586Z,100416.61
2019-04-26T13:06:42.181Z,100417.67
2019-04-26T13:09:17.585Z,100419.27
2019-04-26T13:11:49.248Z,100425.28
2019-04-26T13:14:23.113Z,100421.93
2019-04-26T13:16:57.146Z,100418.74
2019-04-26T13:19:26.811Z,100415.16
2019-04-26T13:21:56.292Z,100415.77
2019-04-26T13:24:25.858Z,100419.36
2019-04-26T13:26:55.318Z,100422.58
2019-04-26T13:29:27.269Z,100424.16
2019-04-26T13:31:56.223Z,100426.16
2019-04-26T13:34:25.726Z,100425.16
2019-04-26T13:36:55.367Z,100424.78
2019-04-26T13:39:25.121Z,100422.77
2019-04-26T13:42:02.977Z,100434.37
2019-04-26T13:44:44.187Z,100422.58
2019-04-26T13:47:15.999Z,100426.38
2019-04-26T13:49:48.187Z,100426.58
2019-04-26T13:52:17.908Z,100430.36
2019-04-26T13:54:47.494Z,100435.75
2019-04-26T13:57:16.964Z,100434.38
2019-04-26T13:59:46.447Z,100433.39
2019-04-26T14:02:16.670Z,100430.39
2019-04-26T14:04:46.313Z,100440.77
2019-04-26T14:07:15.842Z,100435.59
2019-04-26T14:09:45.364Z,100446.78
2019-04-26T14:12:18.764Z,100437.98
2019-04-26T14:14:46.242Z,100436.80
2019-04-26T14:17:15.726Z,100431.41
2019-04-26T14:19:49.179Z,100432.41
2019-04-26T14:22:18.214Z,100435.19
2019-04-26T14:25:07.553Z,100435.98
2019-04-26T14:27:38.746Z,100434.78
2019-04-26T14:30:09.053Z,100430.95
2019-04-26T14:32:38.688Z,100424.36
2019-04-26T14:35:11.382Z,100426.71
2019-04-26T14:37:39.539Z,100425.67
2019-04-26T14:40:17.298Z,100417.67
2019-04-26T14:42:45.848Z,100429.66
2019-04-26T14:45:22.813Z,100419.23
2019-04-26T14:47:47.635Z,100418.25
2019-04-26T14:50:14.756Z,100419.66
2019-04-26T14:52:44.315Z,100410.05
2019-04-26T14:55:16.528Z,100414.86
2019-04-26T14:57:46.723Z,100412.91
2019-04-26T15:00:20.913Z,100408.53
2019-04-26T15:02:56.354Z,100410.74
2019-04-26T15:05:41.892Z,100404.75
2019-04-26T15:08:09.560Z,100398.75
2019-04-26T15:10:45.812Z,100405.16
2019-04-26T15:13:20.088Z,100403.57
2019-04-26T15:15:45.868Z,100408.38
2019-04-26T15:18:13.996Z,100408.80
2019-04-26T15:20:43.492Z,100410.22
2019-04-26T15:23:13.304Z,100404.02
2019-04-26T15:25:48.240Z,100398.61
2019-04-26T15:28:14.645Z,100392.63
2019-04-26T15:30:46.754Z,100397.61
2019-04-26T15:33:15.490Z,100396.22
2019-04-26T15:35:45.873Z,100394.20
2019-04-26T15:38:15.404Z,100385.44
2019-04-26T15:40:46.620Z,100388.61
2019-04-26T15:43:23.810Z,100388.22
2019-04-26T15:45:56.160Z,100388.63
2019-04-26T15:48:43.460Z,100389.23
2019-04-26T15:51:14.641Z,100391.02
2019-04-26T15:53:48.837Z,100393.02
2019-04-26T15:56:17.850Z,100396.62
2019-04-26T15:58:49.034Z,100397.42
2019-04-26T16:01:18.717Z,100397.21
2019-04-26T16:03:48.262Z,100398.62
2019-04-26T16:06:17.838Z,100397.63
2019-04-26T16:08:47.475Z,100393.64
2019-04-26T16:11:17.025Z,100395.04
2019-04-26T16:14:06.030Z,100399.62
2019-04-26T16:16:35.626Z,100403.98
2019-04-26T16:19:05.638Z,100400.59
2019-04-26T16:21:35.110Z,100402.38
2019-04-26T16:24:04.918Z,100407.36
2019-04-26T16:26:34.406Z,100398.59
2019-04-26T16:29:03.828Z,100398.79
2019-04-26T16:31:46.064Z,100402.58
2019-04-26T16:34:23.412Z,100407.36
2019-04-26T16:36:52.948Z,100399.77
2019-04-26T16:39:23.801Z,100401.73
2019-04-26T16:41:53.720Z,100401.51
2019-04-26T16:44:28.066Z,100410.89
2019-04-26T16:47:01.430Z,100406.30
2019-04-26T16:49:25.883Z,100402.26
2019-04-26T16:52:02.021Z,100409.42
2019-04-26T16:54:26.893Z,100417.20
2019-04-26T16:56:59.003Z,100416.57
2019-04-26T16:59:27.606Z,100420.36
2019-04-26T17:02:01.436Z,100423.50
2019-04-26T17:04:32.102Z,100431.84
2019-04-26T17:07:02.957Z,100428.41
2019-04-26T17:09:52.266Z,100441.75
2019-04-26T17:12:02.526Z,100449.64
2019-04-26T17:14:34.174Z,100450.76
2019-04-26T17:17:03.353Z,100437.70
2019-04-26T17:19:37.436Z,100443.24
2019-04-26T17:22:15.979Z,100432.40
2019-04-26T17:24:48.965Z,100435.30
2019-04-26T17:27:20.169Z,100440.20
2019-04-26T17:29:49.822Z,100435.95
2019-04-26T17:32:19.533Z,100436.27
2019-04-26T17:34:49.115Z,100434.80
2019-04-26T17:37:21.968Z,100435.11
2019-04-26T17:39:53.764Z,100441.41
2019-04-26T17:42:24.905Z,100443.14
2019-04-26T17:44:52.392Z,100442.07
2019-04-26T17:47:21.896Z,100440.66
2019-04-26T17:49:52.460Z,100434.27
2019-04-26T17:52:22.084Z,100444.99
2019-04-26T17:54:52.150Z,100447.98
2019-04-26T17:57:33.470Z,100440.52
2019-04-26T18:00:06.485Z,100439.61
2019-04-26T18:02:40.249Z,100443.10
2019-04-26T18:05:00.887Z,100439.97
2019-04-26T18:07:40.539Z,100437.45
2019-04-26T18:10:02.361Z,100434.63
2019-04-26T18:12:32.598Z,100448.00
2019-04-26T18:15:05.671Z,100443.33
2019-04-26T18:17:40.116Z,100452.52
2019-04-26T18:20:08.879Z,100451.33
2019-04-26T18:22:38.195Z,100444.06
2019-04-26T18:25:11.231Z,100453.56
2019-04-26T18:27:39.863Z,100459.78
2019-04-26T18:30:12.231Z,100457.65
2019-04-26T18:32:45.717Z,100458.08
2019-04-26T18:35:15.681Z,100470.19
2019-04-26T18:37:43.849Z,100476.95
2019-04-26T18:40:13.760Z,100488.48
2019-04-26T18:42:43.415Z,100481.28
2019-04-26T18:45:13.912Z,100482.64
2019-04-26T18:47:45.381Z,100482.95
2019-04-26T18:50:15.124Z,100489.28
2019-04-26T18:53:03.264Z,100488.93
2019-04-26T18:55:34.551Z,100493.41
2019-04-26T18:58:05.588Z,100488.71
2019-04-26T19:00:37.303Z,100498.55
2019-04-26T19:03:07.079Z,100498.20
2019-04-26T19:05:36.762Z,100495.30
2019-04-26T19:08:07.600Z,100506.13
2019-04-26T19:10:37.740Z,100509.76
2019-04-26T19:13:22.191Z,100505.30
2019-04-26T19:16:03.048Z,100515.50
2019-04-26T19:18:42.350Z,100517.96
2019-04-26T19:21:14.567Z,100519.56
2019-04-26T19:23:44.155Z,100519.23
2019-04-26T19:26:15.049Z,100525.83
2019-04-26T19:28:44.784Z,100527.09
2019-04-26T19:31:14.322Z,100526.94
2019-04-26T19:33:47.686Z,100532.12
2019-04-26T19:36:17.670Z,100537.73
2019-04-26T19:38:49.814Z,100533.43
2019-04-26T19:41:21.569Z,100543.16
2019-04-26T19:43:48.967Z,100534.09
2019-04-26T19:46:25.194Z,100541.63
2019-04-26T19:49:01.236Z,100539.70
2019-04-26T19:51:44.170Z,100527.54
2019-04-26T19:54:18.027Z,100540.11
2019-04-26T19:57:03.756Z,100546.13
2019-04-26T19:59:34.616Z,100537.86
2019-04-26T20:02:04.966Z,100542.02
2019-04-26T20:04:34.456Z,100545.27
2019-04-26T20:07:04.807Z,100542.37
2019-04-26T20:09:35.261Z,100551.89
2019-04-26T20:12:05.131Z,100541.88
2019-04-26T20:14:44.620Z,100544.74
2019-04-26T20:17:05.989Z,100537.70
2019-04-26T20:19:37.566Z,100541.05
2019-04-26T20:22:07.628Z,100538.14
2019-04-26T20:24:37.253Z,100538.45
2019-04-26T20:27:06.813Z,100539.83
2019-04-26T20:29:36.433Z,100541.31
2019-04-26T20:32:05.797Z,100545.77
2019-04-26T20:34:35.342Z,100544.13
2019-04-26T20:37:05.040Z,100549.05
2019-04-26T20:39:34.658Z,100552.70
2019-04-26T20:42:04.315Z,100551.84
2019-04-26T20:44:48.064Z,100549.98
2019-04-26T20:47:07.650Z,100548.33
2019-04-26T20:49:47.488Z,100550.51
2019-04-26T20:52:07.833Z,100549.89
2019-04-26T20:54:37.404Z,100545.49
2019-04-26T20:57:07.042Z,100550.94
2019-04-26T20:59:36.515Z,100546.77
2019-04-26T21:02:08.069Z,100541.45
2019-04-26T21:04:38.569Z,100547.17
2019-04-26T21:07:11.427Z,100544.58
2019-04-26T21:09:40.905Z,100542.84
2019-04-26T21:12:15.888Z,100547.17
2019-04-26T21:14:44.522Z,100542.89
2019-04-26T21:17:14.044Z,100549.06
2019-04-26T21:19:43.903Z,100540.09
2019-04-26T21:22:13.438Z,100542.14
2019-04-26T21:27:25.949Z,100540.72
2019-04-26T21:30:13.656Z,100544.84
2019-04-26T21:32:59.202Z,100552.40
2019-04-26T21:35:29.440Z,100549.17
2019-04-26T21:38:00.658Z,100543.42
2019-04-26T21:40:33.503Z,100548.45
2019-04-26T21:43:03.308Z,100550.50
2019-04-26T21:45:34.481Z,100548.06
2019-04-26T21:48:06.693Z,100548.41
2019-04-26T21:50:38.630Z,100552.78
2019-04-26T21:53:07.021Z,100555.53
2019-04-26T21:55:38.724Z,100562.66
2019-04-26T21:58:08.036Z,100575.76
2019-04-26T22:00:43.613Z,100560.27
2019-04-26T22:03:16.024Z,100563.66
2019-04-26T22:05:49.876Z,100560.47
2019-04-26T22:08:24.399Z,100566.69
2019-04-26T22:10:48.952Z,100569.84
2019-04-26T22:13:41.538Z,100570.79
2019-04-26T22:16:29.402Z,100560.24
2019-04-26T22:18:45.160Z,100569.77
2019-04-26T22:21:21.649Z,100563.95
2019-04-26T22:24:07.247Z,100566.11
2019-04-26T22:26:37.953Z,100560.28
2019-04-26T22:29:11.992Z,100559.70
2019-04-26T22:31:41.390Z,100554.89
2019-04-26T22:34:10.631Z,100553.08
2019-04-26T22:36:40.173Z,100569.06
2019-04-26T22:39:18.596Z,100561.73
2019-04-26T22:41:48.236Z,100557.17
2019-04-26T22:44:19.515Z,100546.18
2019-04-26T22:46:54.685Z,100540.59
2019-04-26T22:49:24.258Z,100545.19
2019-04-26T22:51:53.797Z,100546.80
2019-04-26T22:54:24.830Z,100547.27
2019-04-26T22:56:54.498Z,100546.87
2019-04-26T22:59:24.002Z,100546.66
2019-04-26T23:01:53.817Z,100549.57
2019-04-26T23:04:26.349Z,100548.30
2019-04-26T23:06:56.484Z,100543.97
2019-04-26T23:09:26.206Z,100546.05
2019-04-26T23:12:03.795Z,100546.98
2019-04-26T23:14:37.798Z,100552.41
2019-04-26T23:17:23.130Z,100551.15
2019-04-26T23:19:57.539Z,100552.12
2019-04-26T23:22:31.050Z,100554.98
2019-04-26T23:24:59.236Z,100549.94
2019-04-26T23:27:28.715Z,100552.60
2019-04-26T23:29:58.507Z,100551.92
2019-04-26T23:32:28.135Z,100552.63
2019-04-26T23:34:58.118Z,100546.75
2019-04-26T23:37:29.776Z,100542.52
2019-04-26T23:39:59.298Z,100543.22
2019-04-26T23:42:28.756Z,100545.07
2019-04-26T23:44:58.254Z,100555.42
2019-04-26T23:47:27.714Z,100549.23
2019-04-26T23:49:57.290Z,100535.66
2019-04-26T23:52:26.840Z,100535.56
2019-04-26T23:54:56.341Z,100541.31
2019-04-26T23:57:27.397Z,100537.73
